sensor_id;sensor_type;location;lat;lon;timestamp;pressure;altitude;pressure_sealevel;temperature;humidity
21781;BME280;52576;53.614;9.894;2022-12-07T00:00:31;100698.78;;;3.18;100.00
21781;BME280;52576;53.614;9.894;2022-12-07T00:01:36;100701.44;;;3.18;100.00
21781;BME280;52576;53.614;9.894;2022-12-07T00:02:40;100699.63;;;3.19;100.00
21781;BME280;52576;53.614;9.894;2022-12-07T00:03:44;100696.16;;;3.18;100.00
21781;BME280;52576;53.614;9.894;2022-12-07T00:04:48;100684.59;;;3.11;100.00
21781;BME280;52576;53.614;9.894;2022-12-07T00:05:52;100694.50;;;3.17;100.00
21781;BME280;52576;53.614;9.894;2022-12-07T00:06:54;100683.09;;;3.17;100.00
21781;BME280;52576;53.614;9.894;2022-12-07T00:07:57;100690.06;;;3.18;100.00
21781;BME280;52576;53.614;9.894;2022-12-07T00:08:59;100680.28;;;3.18;100.00
21781;BME280;52576;53.614;9.894;2022-12-07T00:10:06;100686.41;;;3.19;100.00
21781;BME280;52576;53.614;9.894;2022-12-07T00:11:10;100690.03;;;3.10;100.00
21781;BME280;52576;53.614;9.894;2022-12-07T00:12:13;100647.50;;;2.95;100.00
21781;BME280;52576;53.614;9.894;2022-12-07T00:13:16;100683.59;;;3.20;100.00
21781;BME280;52576;53.614;9.894;2022-12-07T00:14:19;100684.78;;;3.18;100.00
21781;BME280;52576;53.614;9.894;2022-12-07T00:15:22;100682.81;;;3.20;100.00
21781;BME280;52576;53.614;9.894;2022-12-07T00:16:28;100690.56;;;3.21;100.00
21781;BME280;52576;53.614;9.894;2022-12-07T00:17:32;100687.94;;;3.21;100.00
21781;BME280;52576;53.614;9.894;2022-12-07T00:18:35;100678.31;;;3.20;100.00
21781;BME280;52576;53.614;9.894;2022-12-07T00:19:39;100677.53;;;3.20;100.00
21781;BME280;52576;53.614;9.894;2022-12-07T00:20:41;100682.47;;;3.23;100.00
21781;BME280;52576;53.614;9.894;2022-12-07T00:21:44;100681.66;;;3.22;100.00
21781;BME280;52576;53.614;9.894;2022-12-07T00:22:46;100677.19;;;3.23;100.00
21781;BME280;52576;53.614;9.894;2022-12-07T00:23:50;100673.72;;;3.22;100.00
21781;BME280;52576;53.614;9.894;2022-12-07T00:24:53;100678.00;;;3.23;100.00
21781;BME280;52576;53.614;9.894;2022-12-07T00:26:03;100674.41;;;3.24;100.00
21781;BME280;52576;53.614;9.894;2022-12-07T00:27:05;100667.44;;;3.23;100.00
21781;BME280;52576;53.614;9.894;2022-12-07T00:28:08;100669.94;;;3.25;100.00
21781;BME280;52576;53.614;9.894;2022-12-07T00:29:16;100669.78;;;3.26;100.00
21781;BME280;52576;53.614;9.894;2022-12-07T00:30:20;100664.50;;;3.26;100.00
21781;BME280;52576;53.614;9.894;2022-12-07T00:31:24;100666.13;;;3.27;100.00
21781;BME280;52576;53.614;9.894;2022-12-07T00:32:28;100669.78;;;3.26;100.00
21781;BME280;52576;53.614;9.894;2022-12-07T00:33:30;100665.47;;;3.25;100.00
21781;BME280;52576;53.614;9.894;2022-12-07T00:34:33;100666.31;;;3.26;100.00
21781;BME280;52576;53.614;9.894;2022-12-07T00:35:35;100668.28;;;3.24;100.00
21781;BME280;52576;53.614;9.894;2022-12-07T00:36:38;100674.41;;;3.24;100.00
21781;BME280;52576;53.614;9.894;2022-12-07T00:37:41;100674.41;;;3.24;100.00
21781;BME280;52576;53.614;9.894;2022-12-07T00:38:44;100668.28;;;3.24;100.00
21781;BME280;52576;53.614;9.894;2022-12-07T00:39:46;100669.09;;;3.24;100.00
21781;BME280;52576;53.614;9.894;2022-12-07T00:40:55;100676.19;;;3.24;100.00
21781;BME280;52576;53.614;9.894;2022-12-07T00:41:58;100678.00;;;3.23;100.00
21781;BME280;52576;53.614;9.894;2022-12-07T00:43:02;100669.28;;;3.23;100.00
21781;BME280;52576;53.614;9.894;2022-12-07T00:44:04;100666.47;;;3.24;100.00
21781;BME280;52576;53.614;9.894;2022-12-07T00:45:08;100663.00;;;3.24;100.00
21781;BME280;52576;53.614;9.894;2022-12-07T00:46:11;100658.53;;;3.24;100.00
21781;BME280;52576;53.614;9.894;2022-12-07T00:47:15;100660.19;;;3.25;100.00
21781;BME280;52576;53.614;9.894;2022-12-07T00:48:17;100661.84;;;3.26;100.00
21781;BME280;52576;53.614;9.894;2022-12-07T00:49:21;100653.78;;;3.28;100.00
21781;BME280;52576;53.614;9.894;2022-12-07T00:50:24;100654.56;;;3.28;100.00
21781;BME280;52576;53.614;9.894;2022-12-07T00:51:26;100659.84;;;3.28;100.00
21781;BME280;52576;53.614;9.894;2022-12-07T00:52:29;100655.25;;;3.30;100.00
21781;BME280;52576;53.614;9.894;2022-12-07T00:53:34;100650.97;;;3.29;100.00
21781;BME280;52576;53.614;9.894;2022-12-07T00:54:42;100651.63;;;3.31;100.00
21781;BME280;52576;53.614;9.894;2022-12-07T00:55:44;100648.00;;;3.32;100.00
21781;BME280;52576;53.614;9.894;2022-12-07T00:56:48;100640.38;;;3.29;100.00
21781;BME280;52576;53.614;9.894;2022-12-07T00:57:51;100647.00;;;3.33;100.00
21781;BME280;52576;53.614;9.894;2022-12-07T00:58:56;100643.72;;;3.31;100.00
21781;BME280;52576;53.614;9.894;2022-12-07T00:59:59;100651.31;;;3.34;100.00
21781;BME280;52576;53.614;9.894;2022-12-07T01:01:04;100647.00;;;3.33;100.00
21781;BME280;52576;53.614;9.894;2022-12-07T01:02:06;100636.41;;;3.33;100.00
21781;BME280;52576;53.614;9.894;2022-12-07T01:03:12;100646.19;;;3.33;100.00
21781;BME280;52576;53.614;9.894;2022-12-07T01:04:14;100646.19;;;3.33;100.00
21781;BME280;52576;53.614;9.894;2022-12-07T01:05:18;100636.75;;;3.30;100.00
21781;BME280;52576;53.614;9.894;2022-12-07T01:06:22;100633.31;;;3.30;100.00
21781;BME280;52576;53.614;9.894;2022-12-07T01:07:25;100639.38;;;3.30;100.00
21781;BME280;52576;53.614;9.894;2022-12-07T01:08:28;100632.47;;;3.29;100.00
21781;BME280;52576;53.614;9.894;2022-12-07T01:09:31;100626.50;;;3.27;100.00
21781;BME280;52576;53.614;9.894;2022-12-07T01:10:34;100628.16;;;3.28;100.00
21781;BME280;52576;53.614;9.894;2022-12-07T01:11:37;100632.63;;;3.28;100.00
21781;BME280;52576;53.614;9.894;2022-12-07T01:12:40;100636.06;;;3.28;100.00
21781;BME280;52576;53.614;9.894;2022-12-07T01:13:45;100634.28;;;3.29;100.00
21781;BME280;52576;53.614;9.894;2022-12-07T01:14:47;100631.78;;;3.27;100.00
21781;BME280;52576;53.614;9.894;2022-12-07T01:15:51;100631.78;;;3.27;100.00
21781;BME280;52576;53.614;9.894;2022-12-07T01:16:53;100626.34;;;3.29;100.00
21781;BME280;52576;53.614;9.894;2022-12-07T01:17:56;100632.63;;;3.28;100.00
21781;BME280;52576;53.614;9.894;2022-12-07T01:19:00;100629.16;;;3.27;100.00
21781;BME280;52576;53.614;9.894;2022-12-07T01:20:05;100621.03;;;3.21;100.00
21781;BME280;52576;53.614;9.894;2022-12-07T01:21:09;100628.31;;;3.27;100.00
21781;BME280;52576;53.614;9.894;2022-12-07T01:22:13;100624.03;;;3.26;100.00
21781;BME280;52576;53.614;9.894;2022-12-07T01:23:15;100632.13;;;3.24;100.00
21781;BME280;52576;53.614;9.894;2022-12-07T01:24:19;100621.72;;;3.23;100.00
21781;BME280;52576;53.614;9.894;2022-12-07T01:25:21;100632.44;;;3.21;100.00
21781;BME280;52576;53.614;9.894;2022-12-07T01:26:25;100624.69;;;3.20;100.00
21781;BME280;52576;53.614;9.894;2022-12-07T01:27:27;100617.72;;;3.19;100.00
21781;BME280;52576;53.614;9.894;2022-12-07T01:28:30;100623.34;;;3.16;100.00
21781;BME280;52576;53.614;9.894;2022-12-07T01:29:34;100627.63;;;3.17;100.00
21781;BME280;52576;53.614;9.894;2022-12-07T01:30:37;100633.06;;;3.15;100.00
21781;BME280;52576;53.614;9.894;2022-12-07T01:31:39;100626.13;;;3.14;100.00
21781;BME280;52576;53.614;9.894;2022-12-07T01:32:42;100626.13;;;3.14;100.00
21781;BME280;52576;53.614;9.894;2022-12-07T01:33:46;100627.94;;;3.14;100.00
21781;BME280;52576;53.614;9.894;2022-12-07T01:34:50;100624.47;;;3.13;100.00
21781;BME280;52576;53.614;9.894;2022-12-07T01:35:52;100620.84;;;3.14;100.00
21781;BME280;52576;53.614;9.894;2022-12-07T01:36:55;100628.78;;;3.14;100.00
21781;BME280;52576;53.614;9.894;2022-12-07T01:37:58;100622.66;;;3.14;100.00
21781;BME280;52576;53.614;9.894;2022-12-07T01:39:03;100630.22;;;3.09;100.00
21781;BME280;52576;53.614;9.894;2022-12-07T01:40:08;100628.09;;;3.12;100.00
21781;BME280;52576;53.614;9.894;2022-12-07T01:41:12;100626.31;;;3.13;100.00
21781;BME280;52576;53.614;9.894;2022-12-07T01:42:15;100625.63;;;3.11;100.00
21781;BME280;52576;53.614;9.894;2022-12-07T01:43:18;100622.16;;;3.10;100.00
21781;BME280;52576;53.614;9.894;2022-12-07T01:44:23;100621.47;;;3.08;100.00
21781;BME280;52576;53.614;9.894;2022-12-07T01:45:44;100623.47;;;3.06;100.00
21781;BME280;52576;53.614;9.894;2022-12-07T01:46:49;100614.88;;;3.04;100.00
21781;BME280;52576;53.614;9.894;2022-12-07T01:47:53;100620.31;;;3.03;100.00
21781;BME280;52576;53.614;9.894;2022-12-07T01:48:58;100623.94;;;3.02;100.00
21781;BME280;52576;53.614;9.894;2022-12-07T01:50:01;100623.28;;;3.00;100.00
21781;BME280;52576;53.614;9.894;2022-12-07T01:51:08;100622.44;;;2.99;100.00
21781;BME280;52576;53.614;9.894;2022-12-07T01:52:15;100624.25;;;2.99;100.00
21781;BME280;52576;53.614;9.894;2022-12-07T01:53:21;100619.28;;;2.96;100.00
21781;BME280;52576;53.614;9.894;2022-12-07T01:54:26;100622.78;;;2.96;100.00
21781;BME280;52576;53.614;9.894;2022-12-07T01:55:29;100617.66;;;2.95;100.00
21781;BME280;52576;53.614;9.894;2022-12-07T01:56:32;100619.94;;;2.90;100.00
21781;BME280;52576;53.614;9.894;2022-12-07T01:57:39;100613.66;;;2.91;100.00
21781;BME280;52576;53.614;9.894;2022-12-07T01:58:42;100619.09;;;2.89;100.00
21781;BME280;52576;53.614;9.894;2022-12-07T01:59:47;100626.34;;;2.87;100.00
21781;BME280;52576;53.614;9.894;2022-12-07T02:00:51;100625.66;;;2.85;100.00
21781;BME280;52576;53.614;9.894;2022-12-07T02:01:55;100624.19;;;2.83;100.00
21781;BME280;52576;53.614;9.894;2022-12-07T02:03:04;100619.69;;;2.75;100.00
21781;BME280;52576;53.614;9.894;2022-12-07T02:04:08;100622.69;;;2.80;100.00
21781;BME280;52576;53.614;9.894;2022-12-07T02:05:10;100618.56;;;2.78;100.00
21781;BME280;52576;53.614;9.894;2022-12-07T02:06:18;100622.16;;;2.77;100.00
21781;BME280;52576;53.614;9.894;2022-12-07T02:07:23;100619.69;;;2.75;100.00
21781;BME280;52576;53.614;9.894;2022-12-07T02:08:26;100622.63;;;2.72;100.00
21781;BME280;52576;53.614;9.894;2022-12-07T02:09:29;100621.81;;;2.72;100.00
21781;BME280;52576;53.614;9.894;2022-12-07T02:10:32;100621.00;;;2.71;100.00
21781;BME280;52576;53.614;9.894;2022-12-07T02:11:35;100623.78;;;2.70;100.00
21781;BME280;52576;53.614;9.894;2022-12-07T02:12:38;100625.59;;;2.69;100.00
21781;BME280;52576;53.614;9.894;2022-12-07T02:13:42;100624.09;;;2.67;100.00
21781;BME280;52576;53.614;9.894;2022-12-07T02:14:46;100618.00;;;2.66;100.00
21781;BME280;52576;53.614;9.894;2022-12-07T02:16:03;100632.31;;;2.64;100.00
21781;BME280;52576;53.614;9.894;2022-12-07T02:17:15;100618.97;;;2.65;100.00
21781;BME280;52576;53.614;9.894;2022-12-07T02:18:27;100620.94;;;2.63;100.00
21781;BME280;52576;53.614;9.894;2022-12-07T02:20:03;100623.72;;;2.62;100.00
21781;BME280;52576;53.614;9.894;2022-12-07T02:21:17;100623.72;;;2.62;100.00
21781;BME280;52576;53.614;9.894;2022-12-07T02:22:27;100623.72;;;2.62;100.00
21781;BME280;52576;53.614;9.894;2022-12-07T02:25:33;100620.56;;;2.58;100.00
21781;BME280;52576;53.614;9.894;2022-12-07T02:27:10;100620.56;;;2.58;100.00
21781;BME280;52576;53.614;9.894;2022-12-07T02:28:19;100612.00;;;2.56;100.00
21781;BME280;52576;53.614;9.894;2022-12-07T02:29:33;100619.09;;;2.55;100.00
21781;BME280;52576;53.614;9.894;2022-12-07T02:30:43;100618.25;;;2.55;100.00
21781;BME280;52576;53.614;9.894;2022-12-07T02:31:56;100615.78;;;2.53;100.00
21781;BME280;52576;53.614;9.894;2022-12-07T02:33:05;100619.41;;;2.52;100.00
21781;BME280;52576;53.614;9.894;2022-12-07T02:34:14;100626.47;;;2.52;100.00
21781;BME280;52576;53.614;9.894;2022-12-07T02:35:24;100609.97;;;2.50;100.00
21781;BME280;52576;53.614;9.894;2022-12-07T02:36:30;100620.53;;;2.50;100.00
21781;BME280;52576;53.614;9.894;2022-12-07T02:37:39;100620.69;;;2.48;100.00
21781;BME280;52576;53.614;9.894;2022-12-07T02:38:48;100611.94;;;2.48;100.00
21781;BME280;52576;53.614;9.894;2022-12-07T02:39:55;100615.56;;;2.47;100.00
21781;BME280;52576;53.614;9.894;2022-12-07T02:41:04;100613.94;;;2.46;100.00
21781;BME280;52576;53.614;9.894;2022-12-07T02:42:13;100615.72;;;2.45;100.00
21781;BME280;52576;53.614;9.894;2022-12-07T02:43:21;100615.88;;;2.44;100.00
21781;BME280;52576;53.614;9.894;2022-12-07T02:44:29;100612.41;;;2.43;100.00
21781;BME280;52576;53.614;9.894;2022-12-07T02:45:35;100613.41;;;2.42;100.00
21781;BME280;52576;53.614;9.894;2022-12-07T02:46:42;100613.56;;;2.41;100.00
21781;BME280;52576;53.614;9.894;2022-12-07T02:47:48;100618.84;;;2.41;100.00
21781;BME280;52576;53.614;9.894;2022-12-07T02:48:54;100620.63;;;2.40;100.00
21781;BME280;52576;53.614;9.894;2022-12-07T02:49:57;100614.53;;;2.40;100.00
21781;BME280;52576;53.614;9.894;2022-12-07T02:51:00;100612.88;;;2.39;100.00
21781;BME280;52576;53.614;9.894;2022-12-07T02:52:03;100621.75;;;2.38;100.00
21781;BME280;52576;53.614;9.894;2022-12-07T02:53:31;100619.13;;;2.38;100.00
21781;BME280;52576;53.614;9.894;2022-12-07T02:54:34;100621.91;;;2.36;100.00
21781;BME280;52576;53.614;9.894;2022-12-07T02:55:41;100613.19;;;2.36;100.00
21781;BME280;52576;53.614;9.894;2022-12-07T02:56:48;100617.78;;;2.34;100.00
21781;BME280;52576;53.614;9.894;2022-12-07T02:58:11;100613.28;;;2.26;100.00
21781;BME280;52576;53.614;9.894;2022-12-07T02:59:28;100623.50;;;2.29;100.00
21781;BME280;52576;53.614;9.894;2022-12-07T03:00:44;100625.34;;;2.29;100.00
21781;BME280;52576;53.614;9.894;2022-12-07T03:01:58;100614.13;;;2.27;100.00
21781;BME280;52576;53.614;9.894;2022-12-07T03:03:10;100608.63;;;2.20;100.00
21781;BME280;52576;53.614;9.894;2022-12-07T03:04:23;100614.44;;;2.24;100.00
21781;BME280;52576;53.614;9.894;2022-12-07T03:05:44;100624.16;;;2.23;100.00
21781;BME280;52576;53.614;9.894;2022-12-07T03:06:53;100621.66;;;2.22;100.00
21781;BME280;52576;53.614;9.894;2022-12-07T03:08:02;100621.13;;;2.18;100.00
21781;BME280;52576;53.614;9.894;2022-12-07T03:09:12;100616.53;;;2.20;100.00
21781;BME280;52576;53.614;9.894;2022-12-07T03:10:22;100618.34;;;2.20;100.00
21781;BME280;52576;53.614;9.894;2022-12-07T03:11:33;100623.78;;;2.18;100.00
21781;BME280;52576;53.614;9.894;2022-12-07T03:12:46;100622.13;;;2.17;100.00
21781;BME280;52576;53.614;9.894;2022-12-07T03:13:55;100622.28;;;2.16;100.00
21781;BME280;52576;53.614;9.894;2022-12-07T03:15:07;100618.81;;;2.15;100.00
21781;BME280;52576;53.614;9.894;2022-12-07T03:16:14;100618.13;;;2.13;100.00
21781;BME280;52576;53.614;9.894;2022-12-07T03:17:23;100620.78;;;2.13;100.00
21781;BME280;52576;53.614;9.894;2022-12-07T03:18:30;100620.78;;;2.13;100.00
21781;BME280;52576;53.614;9.894;2022-12-07T03:19:34;100619.13;;;2.12;100.00
21781;BME280;52576;53.614;9.894;2022-12-07T03:20:39;100608.38;;;2.06;100.00
21781;BME280;52576;53.614;9.894;2022-12-07T03:21:47;100621.09;;;2.10;100.00
21781;BME280;52576;53.614;9.894;2022-12-07T03:22:52;100615.97;;;2.09;100.00
21781;BME280;52576;53.614;9.894;2022-12-07T03:23:58;100623.03;;;2.08;100.00
21781;BME280;52576;53.614;9.894;2022-12-07T03:25:04;100619.56;;;2.08;100.00
21781;BME280;52576;53.614;9.894;2022-12-07T03:26:12;100614.28;;;2.08;100.00
21781;BME280;52576;53.614;9.894;2022-12-07T03:27:20;100616.94;;;2.08;100.00
21781;BME280;52576;53.614;9.894;2022-12-07T03:28:27;100621.56;;;2.06;100.00
21781;BME280;52576;53.614;9.894;2022-12-07T03:29:36;100614.59;;;2.05;100.00
21781;BME280;52576;53.614;9.894;2022-12-07T03:30:45;100614.59;;;2.05;100.00
21781;BME280;52576;53.614;9.894;2022-12-07T03:31:53;100606.69;;;2.05;100.00
21781;BME280;52576;53.614;9.894;2022-12-07T03:33:00;100611.28;;;2.03;100.00
21781;BME280;52576;53.614;9.894;2022-12-07T03:34:08;100614.59;;;2.05;100.00
21781;BME280;52576;53.614;9.894;2022-12-07T03:35:18;100621.84;;;2.03;100.00
21781;BME280;52576;53.614;9.894;2022-12-07T03:36:26;100612.97;;;2.04;100.00
21781;BME280;52576;53.614;9.894;2022-12-07T03:37:34;100619.19;;;2.03;100.00
21781;BME280;52576;53.614;9.894;2022-12-07T03:38:40;100615.06;;;2.00;100.00
21781;BME280;52576;53.614;9.894;2022-12-07T03:39:52;100617.19;;;1.97;100.00
21781;BME280;52576;53.614;9.894;2022-12-07T03:41:06;100614.38;;;1.98;100.00
21781;BME280;52576;53.614;9.894;2022-12-07T03:42:10;100621.47;;;1.98;100.00
21781;BME280;52576;53.614;9.894;2022-12-07T03:43:14;100617.19;;;1.97;100.00
21781;BME280;52576;53.614;9.894;2022-12-07T03:44:16;100618.19;;;1.96;100.00
21781;BME280;52576;53.614;9.894;2022-12-07T03:45:24;100618.31;;;1.94;100.00
21781;BME280;52576;53.614;9.894;2022-12-07T03:46:36;100620.13;;;1.94;100.00
21781;BME280;52576;53.614;9.894;2022-12-07T03:47:48;100607.53;;;1.88;100.00
21781;BME280;52576;53.614;9.894;2022-12-07T03:49:00;100613.50;;;1.90;100.00
21781;BME280;52576;53.614;9.894;2022-12-07T03:50:13;100616.97;;;1.90;100.00
21781;BME280;52576;53.614;9.894;2022-12-07T03:51:21;100615.28;;;1.89;100.00
21781;BME280;52576;53.614;9.894;2022-12-07T03:52:31;100595.28;;;1.79;100.00
21781;BME280;52576;53.614;9.894;2022-12-07T03:53:39;100624.19;;;1.88;100.00
21781;BME280;52576;53.614;9.894;2022-12-07T03:54:49;100613.81;;;1.87;100.00
21781;BME280;52576;53.614;9.894;2022-12-07T03:55:54;100630.47;;;1.87;100.00
21781;BME280;52576;53.614;9.894;2022-12-07T03:56:59;100609.81;;;1.83;100.00
21781;BME280;52576;53.614;9.894;2022-12-07T03:58:05;100613.13;;;1.85;100.00
21781;BME280;52576;53.614;9.894;2022-12-07T03:59:09;100613.13;;;1.85;100.00
21781;BME280;52576;53.614;9.894;2022-12-07T04:00:14;100632.41;;;1.85;100.00
21781;BME280;52576;53.614;9.894;2022-12-07T04:01:17;100622.03;;;1.84;100.00
21781;BME280;52576;53.614;9.894;2022-12-07T04:02:20;100630.88;;;1.83;100.00
21781;BME280;52576;53.614;9.894;2022-12-07T04:03:25;100623.81;;;1.83;100.00
21781;BME280;52576;53.614;9.894;2022-12-07T04:04:27;100624.81;;;1.82;100.00
21781;BME280;52576;53.614;9.894;2022-12-07T04:05:31;100628.25;;;1.83;100.00
21781;BME280;52576;53.614;9.894;2022-12-07T04:06:33;100631.88;;;1.82;100.00
21781;BME280;52576;53.614;9.894;2022-12-07T04:07:36;100636.31;;;1.81;100.00
21781;BME280;52576;53.614;9.894;2022-12-07T04:08:39;100632.88;;;1.81;100.00
21781;BME280;52576;53.614;9.894;2022-12-07T04:09:42;100636.47;;;1.80;100.00
21781;BME280;52576;53.614;9.894;2022-12-07T04:10:44;100629.56;;;1.79;100.00
21781;BME280;52576;53.614;9.894;2022-12-07T04:11:47;100624.28;;;1.79;100.00
21781;BME280;52576;53.614;9.894;2022-12-07T04:12:49;100633.97;;;1.78;100.00
21781;BME280;52576;53.614;9.894;2022-12-07T04:13:52;100625.25;;;1.78;100.00
21781;BME280;52576;53.614;9.894;2022-12-07T04:15:09;100627.06;;;1.77;100.00
21781;BME280;52576;53.614;9.894;2022-12-07T04:16:13;100631.50;;;1.77;100.00
21781;BME280;52576;53.614;9.894;2022-12-07T04:17:15;100630.66;;;1.76;100.00
21781;BME280;52576;53.614;9.894;2022-12-07T04:18:18;100628.03;;;1.76;100.00
21781;BME280;52576;53.614;9.894;2022-12-07T04:19:24;100624.59;;;1.76;100.00
21781;BME280;52576;53.614;9.894;2022-12-07T04:20:28;100624.44;;;1.77;100.00
21781;BME280;52576;53.614;9.894;2022-12-07T04:21:30;100620.13;;;1.76;100.00
21781;BME280;52576;53.614;9.894;2022-12-07T04:22:33;100622.59;;;1.78;100.00
21781;BME280;52576;53.614;9.894;2022-12-07T04:23:35;100623.59;;;1.77;100.00
21781;BME280;52576;53.614;9.894;2022-12-07T04:24:38;100625.41;;;1.76;100.00
21781;BME280;52576;53.614;9.894;2022-12-07T04:25:40;100625.41;;;1.76;100.00
21781;BME280;52576;53.614;9.894;2022-12-07T04:26:44;100627.22;;;1.76;100.00
21781;BME280;52576;53.614;9.894;2022-12-07T04:27:46;100622.06;;;1.74;100.00
21781;BME280;52576;53.614;9.894;2022-12-07T04:28:49;100618.63;;;1.74;100.00
21781;BME280;52576;53.614;9.894;2022-12-07T04:29:52;100623.91;;;1.74;100.00
21781;BME280;52576;53.614;9.894;2022-12-07T04:30:55;100628.34;;;1.73;100.00
21781;BME280;52576;53.614;9.894;2022-12-07T04:31:57;100626.69;;;1.72;100.00
21781;BME280;52576;53.614;9.894;2022-12-07T04:33:01;100623.22;;;1.72;100.00
21781;BME280;52576;53.614;9.894;2022-12-07T04:34:03;100625.03;;;1.71;100.00
21781;BME280;52576;53.614;9.894;2022-12-07T04:35:09;100630.44;;;1.70;100.00
21781;BME280;52576;53.614;9.894;2022-12-07T04:36:11;100622.53;;;1.70;100.00
21781;BME280;52576;53.614;9.894;2022-12-07T04:37:14;100625.31;;;1.68;100.00
21781;BME280;52576;53.614;9.894;2022-12-07T04:38:16;100632.41;;;1.68;100.00
21781;BME280;52576;53.614;9.894;2022-12-07T04:39:23;100633.38;;;1.67;100.00
21781;BME280;52576;53.614;9.894;2022-12-07T04:40:26;100629.91;;;1.66;100.00
21781;BME280;52576;53.614;9.894;2022-12-07T04:41:29;100628.13;;;1.67;100.00
21781;BME280;52576;53.614;9.894;2022-12-07T04:42:31;100632.53;;;1.66;100.00
21781;BME280;52576;53.614;9.894;2022-12-07T04:43:35;100628.28;;;1.65;100.00
21781;BME280;52576;53.614;9.894;2022-12-07T04:44:37;100632.69;;;1.65;100.00
21781;BME280;52576;53.614;9.894;2022-12-07T04:45:45;100629.38;;;1.63;100.00
21781;BME280;52576;53.614;9.894;2022-12-07T04:46:48;100629.38;;;1.63;100.00
21781;BME280;52576;53.614;9.894;2022-12-07T04:47:52;100629.38;;;1.63;100.00
21781;BME280;52576;53.614;9.894;2022-12-07T04:48:54;100626.91;;;1.61;100.00
21781;BME280;52576;53.614;9.894;2022-12-07T04:49:58;100616.28;;;1.53;100.00
21781;BME280;52576;53.614;9.894;2022-12-07T04:51:04;100628.72;;;1.61;100.00
21781;BME280;52576;53.614;9.894;2022-12-07T04:52:07;100627.88;;;1.60;100.00
21781;BME280;52576;53.614;9.894;2022-12-07T04:53:09;100630.53;;;1.60;100.00
21781;BME280;52576;53.614;9.894;2022-12-07T04:54:13;100623.72;;;1.58;100.00
21781;BME280;52576;53.614;9.894;2022-12-07T04:55:15;100625.56;;;1.57;100.00
21781;BME280;52576;53.614;9.894;2022-12-07T04:56:19;100623.88;;;1.56;100.00
21781;BME280;52576;53.614;9.894;2022-12-07T04:57:21;100621.25;;;1.56;100.00
21781;BME280;52576;53.614;9.894;2022-12-07T04:58:24;100628.34;;;1.56;100.00
21781;BME280;52576;53.614;9.894;2022-12-07T04:59:26;100625.84;;;1.54;100.00
21781;BME280;52576;53.614;9.894;2022-12-07T05:00:29;100630.28;;;1.54;100.00
21781;BME280;52576;53.614;9.894;2022-12-07T05:01:32;100622.56;;;1.52;100.00
21781;BME280;52576;53.614;9.894;2022-12-07T05:02:36;100622.56;;;1.52;100.00
21781;BME280;52576;53.614;9.894;2022-12-07T05:03:38;100626.97;;;1.52;100.00
21781;BME280;52576;53.614;9.894;2022-12-07T05:04:41;100622.69;;;1.51;100.00
21781;BME280;52576;53.614;9.894;2022-12-07T05:05:43;100618.38;;;1.50;100.00
21781;BME280;52576;53.614;9.894;2022-12-07T05:06:48;100614.78;;;1.51;100.00
21781;BME280;52576;53.614;9.894;2022-12-07T05:07:50;100613.97;;;1.50;100.00
21781;BME280;52576;53.614;9.894;2022-12-07T05:08:53;100614.78;;;1.51;100.00
21781;BME280;52576;53.614;9.894;2022-12-07T05:09:56;100617.44;;;1.51;100.00
21781;BME280;52576;53.614;9.894;2022-12-07T05:10:59;100619.06;;;1.52;100.00
21781;BME280;52576;53.614;9.894;2022-12-07T05:12:01;100621.72;;;1.52;100.00
21781;BME280;52576;53.614;9.894;2022-12-07T05:13:05;100618.09;;;1.53;100.00
21781;BME280;52576;53.614;9.894;2022-12-07T05:14:10;100613.97;;;1.50;100.00
21781;BME280;52576;53.614;9.894;2022-12-07T05:15:15;100617.44;;;1.51;100.00
21781;BME280;52576;53.614;9.894;2022-12-07T05:16:17;100617.13;;;1.54;100.00
21781;BME280;52576;53.614;9.894;2022-12-07T05:17:20;100618.75;;;1.55;100.00
21781;BME280;52576;53.614;9.894;2022-12-07T05:18:24;100614.09;;;1.49;100.00
21781;BME280;52576;53.614;9.894;2022-12-07T05:19:26;100618.75;;;1.55;100.00
21781;BME280;52576;53.614;9.894;2022-12-07T05:20:29;100618.75;;;1.55;100.00
21781;BME280;52576;53.614;9.894;2022-12-07T05:21:31;100621.41;;;1.55;100.00
21781;BME280;52576;53.614;9.894;2022-12-07T05:22:36;100617.94;;;1.54;100.00
21781;BME280;52576;53.614;9.894;2022-12-07T05:23:39;100621.41;;;1.55;100.00
21781;BME280;52576;53.614;9.894;2022-12-07T05:24:41;100618.91;;;1.53;100.00
21781;BME280;52576;53.614;9.894;2022-12-07T05:25:46;100618.09;;;1.53;100.00
21781;BME280;52576;53.614;9.894;2022-12-07T05:26:48;100616.44;;;1.52;100.00
21781;BME280;52576;53.614;9.894;2022-12-07T05:27:51;100617.44;;;1.51;100.00
21781;BME280;52576;53.614;9.894;2022-12-07T05:28:54;100617.44;;;1.51;100.00
21781;BME280;52576;53.614;9.894;2022-12-07T05:29:57;100618.38;;;1.50;100.00
21781;BME280;52576;53.614;9.894;2022-12-07T05:31:00;100623.66;;;1.50;100.00
21781;BME280;52576;53.614;9.894;2022-12-07T05:32:04;100616.75;;;1.49;100.00
21781;BME280;52576;53.614;9.894;2022-12-07T05:33:06;100611.53;;;1.39;100.00
21781;BME280;52576;53.614;9.894;2022-12-07T05:34:10;100613.28;;;1.48;100.00
21781;BME280;52576;53.614;9.894;2022-12-07T05:35:13;100615.91;;;1.48;100.00
21781;BME280;52576;53.614;9.894;2022-12-07T05:36:16;100617.69;;;1.48;100.00
21781;BME280;52576;53.614;9.894;2022-12-07T05:37:18;100583.63;;;1.28;100.00
21781;BME280;52576;53.614;9.894;2022-12-07T05:38:23;100613.97;;;1.50;100.00
21781;BME280;52576;53.614;9.894;2022-12-07T05:39:26;100613.44;;;1.47;100.00
21781;BME280;52576;53.614;9.894;2022-12-07T05:40:29;100616.44;;;1.52;100.00
21781;BME280;52576;53.614;9.894;2022-12-07T05:41:32;100619.06;;;1.52;100.00
21781;BME280;52576;53.614;9.894;2022-12-07T05:42:52;100620.72;;;1.53;100.00
21781;BME280;52576;53.614;9.894;2022-12-07T05:44:00;100608.53;;;1.52;100.00